createdAt,value
2023-05-09T00:01:04.938Z,11
2023-05-09T00:16:05.495Z,10
2023-05-09T00:31:04.851Z,10
2023-05-09T00:46:05.214Z,11
2023-05-09T01:01:05.503Z,11
2023-05-09T01:16:05.069Z,11
2023-05-09T01:31:05.636Z,11
2023-05-09T01:46:05.048Z,11
2023-05-09T02:01:05.515Z,12
2023-05-09T02:16:05.121Z,12
2023-05-09T02:31:05.721Z,11
2023-05-09T02:46:05.716Z,12
2023-05-09T03:01:04.977Z,12
2023-05-09T03:16:05.535Z,12
2023-05-09T03:31:05.347Z,13
2023-05-09T03:46:05.636Z,13
2023-05-09T04:01:05.829Z,13
2023-05-09T04:16:05.665Z,14
2023-05-09T04:31:05.636Z,13
2023-05-09T04:46:05.646Z,14
2023-05-09T05:01:04.800Z,13
2023-05-09T05:16:05.474Z,12
2023-05-09T05:31:05.216Z,11
2023-05-09T05:46:05.703Z,10
2023-05-09T06:01:05.803Z,8
2023-05-09T06:16:18.354Z,8
2023-05-09T06:31:05.686Z,7
2023-05-09T06:46:05.357Z,5
2023-05-09T07:01:05.561Z,5
2023-05-09T07:16:04.854Z,4
2023-05-09T07:31:05.313Z,6
2023-05-09T07:46:04.990Z,3
2023-05-09T08:01:05.459Z,4
2023-05-09T08:16:05.479Z,3
2023-05-09T08:31:04.901Z,3
2023-05-09T08:46:05.487Z,3
2023-05-09T09:01:04.836Z,3
2023-05-09T09:16:05.431Z,3
2023-05-09T09:31:04.588Z,3
2023-05-09T09:46:04.878Z,2
2023-05-09T10:01:05.444Z,2
2023-05-09T10:16:04.853Z,2
2023-05-09T10:31:05.957Z,2
2023-05-09T10:46:05.382Z,2
2023-05-09T11:01:05.574Z,2
2023-05-09T11:16:05.099Z,2
2023-05-09T11:31:05.526Z,2
2023-05-09T11:46:04.866Z,2
2023-05-09T12:01:04.786Z,1
2023-05-09T12:16:05.133Z,1
2023-05-09T12:31:05.567Z,1
2023-05-09T12:46:05.519Z,1
2023-05-09T13:01:04.979Z,1
2023-05-09T13:16:05.064Z,1
2023-05-09T13:31:05.416Z,1
2023-05-09T13:46:05.315Z,1
2023-05-09T14:01:04.568Z,1
2023-05-09T14:16:05.504Z,1
2023-05-09T14:31:05.527Z,1
2023-05-09T14:46:04.863Z,1
2023-05-09T15:01:05.821Z,1
2023-05-09T15:16:05.028Z,1
2023-05-09T15:31:04.985Z,1
2023-05-09T15:46:05.651Z,1
2023-05-09T16:01:04.889Z,1
2023-05-09T16:16:04.981Z,1
2023-05-09T16:31:05.248Z,2
2023-05-09T16:46:04.990Z,2
2023-05-09T17:01:05.302Z,4
2023-05-09T17:16:04.666Z,2
2023-05-09T17:31:05.080Z,2
2023-05-09T17:46:05.758Z,2
2023-05-09T18:01:05.379Z,2
2023-05-09T18:16:04.846Z,2
2023-05-09T18:31:05.492Z,2
2023-05-09T18:46:05.185Z,2
2023-05-09T19:01:04.584Z,3
2023-05-09T19:16:04.877Z,3
2023-05-09T19:31:05.217Z,4
2023-05-09T19:46:05.611Z,4
2023-05-09T20:01:05.196Z,4
2023-05-09T20:16:04.629Z,4
2023-05-09T20:31:04.870Z,7
2023-05-09T20:46:04.768Z,3
2023-05-09T21:01:05.002Z,3
2023-05-09T21:16:05.570Z,3
2023-05-09T21:31:05.055Z,4
2023-05-09T21:46:04.531Z,4
2023-05-09T22:01:05.405Z,4
2023-05-09T22:16:05.070Z,5
2023-05-09T22:31:05.507Z,5
2023-05-09T22:46:04.691Z,5
2023-05-09T23:01:05.124Z,5
2023-05-09T23:16:05.712Z,5
2023-05-09T23:31:05.264Z,6
2023-05-09T23:46:05.652Z,5
